Date,TemperatureHighF,TemperatureAvgF,TemperatureLowF,DewpointHighF,DewpointAvgF,DewpointLowF,HumidityHigh,HumidityAvg,HumidityLow,PressureMaxIn,PressureMinIn,WindSpeedMaxMPH,WindSpeedAvgMPH,GustSpeedMaxMPH,PrecipitationSumIn
2013-1-1,43.2,39.6,35.3,41.9,36.9,30.9,96,90,84,30.14,29.89,16,4,16,0.01
2013-1-2,38.8,34.0,28.4,31.3,29.4,25.6,90,84,74,30.20,30.11,13,2,13,0.00
2013-1-3,49.2,38.0,28.6,33.5,29.1,26.0,92,72,47,30.33,30.19,13,3,14,0.00
2013-1-4,49.6,41.9,36.5,35.8,31.5,27.6,80,67,44,30.39,30.21,5,0,5,0.00
2013-1-5,50.9,42.8,35.7,40.0,36.4,33.3,92,79,64,30.21,30.06,10,1,10,0.00
2013-1-6,56.7,41.0,32.3,33.8,29.8,25.9,94,69,33,30.26,30.14,14,2,14,0.00
2013-1-7,55.9,40.9,27.6,38.1,31.1,22.1,82,69,47,30.20,29.96,12,1,12,0.00
2013-1-8,47.4,45.6,42.1,46.2,41.6,34.9,97,86,74,29.97,29.82,12,3,12,1.21
2013-1-9,55.4,52.8,47.0,54.6,51.9,46.2,97,97,96,29.99,29.82,25,8,25,2.07
2013-1-10,59.2,54.4,47.8,56.5,50.3,44.8,99,87,65,29.86,29.73,15,5,15,0.23
2013-1-11,68.8,57.7,45.9,62.4,50.2,42.8,92,78,52,29.80,29.61,18,5,18,0.00
2013-1-12,65.5,53.1,35.4,64.3,51.0,31.9,97,93,85,29.79,29.51,24,5,24,1.24
2013-1-13,41.6,34.5,29.1,32.1,25.8,20.4,88,71,53,30.15,29.78,21,7,21,0.31
2013-1-14,43.3,33.6,26.4,27.3,23.0,19.8,78,65,51,30.22,30.08,17,6,17,0.00
2013-1-15,36.9,33.4,28.8,29.8,26.1,22.5,93,75,66,30.11,30.01,15,4,15,0.05
2013-1-16,47.2,35.6,25.6,27.7,22.5,18.4,81,61,38,30.15,30.02,12,3,12,0.00
2013-1-17,59.9,45.7,33.0,36.4,30.5,23.9,83,56,37,30.35,30.09,15,3,15,0.00
2013-1-18,61.2,45.3,28.8,39.2,33.9,25.7,93,67,39,30.36,30.11,13,2,13,0.00
2013-1-19,65.5,50.5,38.8,47.8,41.6,33.5,92,73,52,30.11,29.98,13,3,13,0.00
2013-1-20,68.5,50.4,34.5,50.4,42.5,33.0,96,77,43,30.07,29.92,9,1,9,0.00
2013-1-21,57.4,45.7,36.7,41.8,32.8,25.5,91,62,45,30.15,29.97,15,4,15,0.00
2013-1-22,62.9,47.1,34.3,47.3,36.9,24.2,90,68,53,30.17,30.03,8,1,8,0.00
2013-1-23,73.7,57.5,42.2,56.8,50.4,40.3,96,79,54,30.11,29.96,17,2,17,0.00
2013-1-24,75.0,60.1,51.5,61.5,55.5,49.5,97,86,60,30.03,29.87,9,2,9,0.00
2013-1-25,53.3,48.0,42.9,51.8,44.3,38.6,100,87,72,30.06,29.86,13,4,13,0.01
2013-1-26,49.3,46.4,43.4,48.2,44.9,39.8,97,95,83,30.08,29.95,12,3,12,0.03
2013-1-27,73.2,59.9,47.1,64.0,56.1,46.3,100,88,66,29.96,29.76,18,5,18,0.01
2013-1-28,75.7,71.3,66.6,67.1,64.6,62.8,90,80,67,29.84,29.66,18,8,18,0.00
2013-1-29,76.0,65.7,52.9,67.9,59.8,34.1,92,82,46,29.67,29.26,25,8,25,0.49
2013-1-30,54.4,45.7,36.2,40.3,30.4,23.6,81,56,36,29.98,29.48,26,8,26,0.00
2013-1-31,68.4,48.5,30.3,33.6,27.5,21.4,84,50,19,30.19,29.93,21,4,21,0.00